Time;durP1;ratioP1;P1;durP2;ratioP2;P2;SDS_P1;SDS_P2;PMS_P1;PMS_P2;Temp;Humidity;BMP_temperature;BMP_pressure;BME280_temperature;BME280_humidity;BME280_pressure;Samples;Min_cycle;Max_cycle;Signal;HPM_P1;HPM_P2
2023/04/03 00:01:10;;;;;;;2.05;0.55;;;2.20;99.00;;;;;;5042671;28;20102;-65
2023/04/03 00:03:37;;;;;;;4.88;1.20;;;2.20;98.90;;;;;;5037142;28;20407;-64
2023/04/03 00:06:03;;;;;;;4.72;1.00;;;2.20;99.20;;;;;;5042396;28;20443;-64
2023/04/03 00:08:32;;;;;;;2.83;0.85;;;2.20;99.20;;;;;;5040117;28;20029;-64
2023/04/03 00:10:58;;;;;;;3.15;0.82;;;2.20;99.30;;;;;;5040974;28;20918;-64
2023/04/03 00:13:24;;;;;;;2.72;1.00;;;2.10;99.30;;;;;;5039545;28;20058;-64
2023/04/03 00:15:51;;;;;;;2.67;0.80;;;2.10;99.50;;;;;;5039532;28;20478;-63
2023/04/03 00:18:17;;;;;;;9.75;1.40;;;2.00;99.40;;;;;;5033879;28;20021;-63
2023/04/03 00:20:43;;;;;;;2.35;0.60;;;2.10;99.60;;;;;;5039388;28;20187;-63
2023/04/03 00:23:09;;;;;;;3.22;0.90;;;2.00;99.60;;;;;;5037828;28;20038;-66
2023/04/03 00:25:35;;;;;;;4.80;0.73;;;2.00;99.60;;;;;;5038384;28;20039;-65
2023/04/03 00:28:02;;;;;;;2.10;0.77;;;2.00;99.50;;;;;;5040025;28;20094;-65
2023/04/03 00:30:28;;;;;;;4.63;0.90;;;2.00;99.40;;;;;;5040377;28;20042;-65
2023/04/03 00:32:54;;;;;;;2.63;0.80;;;2.00;99.30;;;;;;5040430;28;20036;-66
2023/04/03 00:35:21;;;;;;;3.40;0.70;;;2.00;99.20;;;;;;5042913;28;20047;-66
2023/04/03 00:37:48;;;;;;;2.65;0.73;;;2.00;99.20;;;;;;5040396;28;20055;-65
2023/04/03 00:40:15;;;;;;;3.00;0.82;;;2.00;99.30;;;;;;5036820;28;20037;-66
2023/04/03 00:42:42;;;;;;;4.45;0.65;;;2.00;99.40;;;;;;5041939;28;20041;-66
2023/04/03 00:45:11;;;;;;;2.97;0.70;;;2.00;99.50;;;;;;5048230;28;20041;-66
2023/04/03 00:47:39;;;;;;;3.78;1.05;;;2.00;99.70;;;;;;5038360;28;20036;-65
2023/04/03 00:50:06;;;;;;;5.13;1.42;;;2.00;99.60;;;;;;5043693;28;20048;-65
2023/04/03 00:52:32;;;;;;;2.15;0.75;;;1.90;99.60;;;;;;5040559;28;20110;-66
2023/04/03 00:55:01;;;;;;;7.43;0.90;;;1.90;99.60;;;;;;5041234;28;20049;-66
2023/04/03 00:57:29;;;;;;;3.95;0.70;;;1.90;99.60;;;;;;5040639;28;20021;-65
2023/04/03 01:00:03;;;;;;;3.65;1.20;;;1.90;99.50;;;;;;5039192;28;20128;-65
2023/04/03 01:02:29;;;;;;;2.00;0.85;;;1.90;99.20;;;;;;5034388;28;20029;-65
2023/04/03 01:04:55;;;;;;;4.13;0.80;;;1.80;99.30;;;;;;5031651;28;20037;-65
2023/04/03 01:07:23;;;;;;;2.85;0.70;;;1.80;99.20;;;;;;5040590;28;20555;-65
2023/04/03 01:09:55;;;;;;;3.85;1.02;;;1.90;99.20;;;;;;5041061;28;20036;-65
2023/04/03 01:12:23;;;;;;;3.08;0.80;;;1.80;99.30;;;;;;5036188;28;20037;-65
2023/04/03 01:14:52;;;;;;;2.50;0.90;;;1.80;99.30;;;;;;5039074;28;20033;-65
2023/04/03 01:17:24;;;;;;;2.88;0.88;;;1.80;99.30;;;;;;5041523;28;20036;-65
2023/04/03 01:20:16;;;;;;;4.47;0.90;;;1.80;99.70;;;;;;5037290;28;20033;-65
2023/04/03 01:23:02;;;;;;;4.50;0.80;;;1.80;99.70;;;;;;5033666;28;20578;-66
2023/04/03 01:25:27;;;;;;;5.05;0.90;;;1.70;99.70;;;;;;4998599;28;20215;-65
2023/04/03 01:27:53;;;;;;;7.97;1.13;;;1.70;99.80;;;;;;5040851;28;20976;-65
2023/04/03 01:30:21;;;;;;;1.73;0.68;;;1.70;99.80;;;;;;5041560;28;20037;-65
2023/04/03 01:32:47;;;;;;;4.45;1.00;;;1.70;99.90;;;;;;5039098;28;20556;-65
2023/04/03 01:35:13;;;;;;;6.88;1.20;;;1.70;99.90;;;;;;5041578;28;20041;-66
2023/04/03 01:37:39;;;;;;;6.95;0.90;;;1.80;99.90;;;;;;5040844;28;20730;-66
2023/04/03 01:40:06;;;;;;;5.80;1.13;;;1.90;99.80;;;;;;5032957;28;20040;-66
2023/04/03 01:42:33;;;;;;;1.75;0.50;;;2.00;99.40;;;;;;5039849;28;20124;-66
2023/04/03 01:44:59;;;;;;;1.83;0.60;;;2.00;99.20;;;;;;5041279;28;20100;-66
2023/04/03 01:47:25;;;;;;;5.55;1.17;;;2.10;99.00;;;;;;5039223;28;20033;-66
2023/04/03 01:49:50;;;;;;;4.45;0.90;;;2.10;98.80;;;;;;5032138;28;20063;-66
2023/04/03 01:52:16;;;;;;;2.83;1.08;;;2.10;98.80;;;;;;5033846;28;20652;-65
2023/04/03 01:54:42;;;;;;;4.70;0.90;;;2.10;98.70;;;;;;5042000;28;20037;-66
2023/04/03 01:57:08;;;;;;;2.83;0.80;;;2.10;98.50;;;;;;5043883;28;20084;-66
2023/04/03 01:59:35;;;;;;;4.88;0.70;;;2.10;98.50;;;;;;5036460;28;20029;-66
2023/04/03 02:02:00;;;;;;;5.43;1.33;;;2.10;98.50;;;;;;5036227;28;20036;-66
2023/04/03 02:04:26;;;;;;;3.95;1.00;;;2.10;98.60;;;;;;5044740;28;20033;-66
2023/04/03 02:06:53;;;;;;;7.35;1.02;;;2.10;98.50;;;;;;5039206;28;20124;-66
2023/04/03 02:09:18;;;;;;;4.43;1.33;;;2.10;98.40;;;;;;5045157;28;20112;-66
2023/04/03 02:11:44;;;;;;;4.03;0.70;;;2.10;98.50;;;;;;5039304;28;20698;-66
2023/04/03 02:14:11;;;;;;;4.30;1.00;;;2.10;98.40;;;;;;5043001;28;20111;-66
2023/04/03 02:16:36;;;;;;;3.00;0.98;;;2.00;98.50;;;;;;5038351;28;20460;-66
2023/04/03 02:19:02;;;;;;;0.90;0.75;;;2.00;98.50;;;;;;5056252;28;20053;-66
2023/04/03 02:21:30;;;;;;;5.07;1.10;;;2.00;98.50;;;;;;5039381;28;20025;-66
2023/04/03 02:23:56;;;;;;;3.33;0.80;;;2.00;98.50;;;;;;5042591;28;20098;-66
2023/04/03 02:26:23;;;;;;;3.05;0.82;;;1.90;98.40;;;;;;5045933;28;20032;-66
2023/04/03 02:28:48;;;;;;;3.78;1.15;;;1.90;98.40;;;;;;5034057;28;20036;-66
2023/04/03 02:31:14;;;;;;;4.95;1.33;;;1.90;98.70;;;;;;5045765;28;20123;-66
2023/04/03 02:33:42;;;;;;;2.72;0.98;;;1.90;98.40;;;;;;5041900;28;20103;-66
2023/04/03 02:36:10;;;;;;;4.53;1.67;;;1.80;98.40;;;;;;5043332;28;20770;-66
2023/04/03 02:38:38;;;;;;;1.80;0.68;;;1.80;98.50;;;;;;5036405;28;20028;-66
2023/04/03 02:41:07;;;;;;;1.83;0.90;;;1.70;98.60;;;;;;5037667;28;20029;-66
2023/04/03 02:43:33;;;;;;;5.32;1.00;;;1.70;98.80;;;;;;5045100;28;20039;-66
2023/04/03 02:45:58;;;;;;;2.95;1.02;;;1.70;98.90;;;;;;5045245;28;20493;-67
2023/04/03 02:48:25;;;;;;;4.55;1.10;;;1.60;98.90;;;;;;5041953;28;20032;-66
2023/04/03 02:50:51;;;;;;;4.15;1.05;;;1.60;98.80;;;;;;5037539;28;20059;-66
2023/04/03 02:53:17;;;;;;;1.95;0.73;;;1.60;98.90;;;;;;5056669;28;20825;-66
2023/04/03 02:55:44;;;;;;;2.38;0.95;;;1.50;98.90;;;;;;5043106;28;20029;-67
2023/04/03 02:58:09;;;;;;;3.00;1.05;;;1.50;99.10;;;;;;5045835;28;20116;-67
2023/04/03 03:00:35;;;;;;;3.95;0.90;;;1.40;99.30;;;;;;5046660;28;20021;-66
2023/04/03 03:03:01;;;;;;;4.07;1.42;;;1.40;99.50;;;;;;5046069;28;20530;-66
2023/04/03 03:05:28;;;;;;;3.08;0.95;;;1.40;99.40;;;;;;5046867;28;20548;-66
2023/04/03 03:07:54;;;;;;;4.05;0.90;;;1.40;99.50;;;;;;5044585;28;20029;-67
2023/04/03 03:10:20;;;;;;;2.42;0.77;;;1.30;99.50;;;;;;5044274;28;20499;-66
2023/04/03 03:12:46;;;;;;;3.45;1.27;;;1.30;99.50;;;;;;5044243;28;20112;-67
2023/04/03 03:15:12;;;;;;;4.43;0.65;;;1.20;99.60;;;;;;5044417;28;20135;-67
2023/04/03 03:17:37;;;;;;;2.10;0.80;;;1.20;99.60;;;;;;5043679;28;20044;-67
2023/04/03 03:20:05;;;;;;;5.28;0.63;;;1.20;99.70;;;;;;5045417;28;20029;-67
2023/04/03 03:22:32;;;;;;;2.85;0.80;;;1.20;99.90;;;;;;5037108;28;20095;-66
2023/04/03 03:24:57;;;;;;;4.50;0.93;;;1.10;99.90;;;;;;5043622;28;20047;-66
2023/04/03 03:27:23;;;;;;;3.40;0.80;;;1.10;99.90;;;;;;5029236;28;20381;-66
2023/04/03 03:29:50;;;;;;;2.92;1.02;;;1.10;99.90;;;;;;5042997;28;20053;-67
2023/04/03 03:32:15;;;;;;;7.38;0.80;;;1.10;99.90;;;;;;5038073;28;20057;-66
2023/04/03 03:34:41;;;;;;;3.15;0.93;;;1.00;99.90;;;;;;5038165;28;20540;-67
2023/04/03 03:37:07;;;;;;;2.50;0.80;;;1.00;99.90;;;;;;5040216;28;20040;-66
2023/04/03 03:39:33;;;;;;;1.05;0.60;;;1.00;99.90;;;;;;5036205;28;20112;-66
2023/04/03 03:41:59;;;;;;;2.33;0.80;;;1.00;99.90;;;;;;5040995;28;20131;-67
2023/04/03 03:44:25;;;;;;;4.00;1.45;;;1.00;99.90;;;;;;5040646;28;20033;-67
2023/04/03 03:46:52;;;;;;;2.92;1.00;;;1.00;99.90;;;;;;5044426;28;20082;-66
2023/04/03 03:49:18;;;;;;;3.60;0.90;;;1.00;99.90;;;;;;5041949;28;20043;-66
2023/04/03 03:51:45;;;;;;;3.50;0.88;;;0.90;99.90;;;;;;5037323;28;20044;-66
2023/04/03 03:54:11;;;;;;;7.25;1.30;;;0.90;99.90;;;;;;5045927;28;20067;-67
2023/04/03 03:56:37;;;;;;;6.47;1.15;;;0.90;99.90;;;;;;5042826;28;20110;-66
2023/04/03 03:59:03;;;;;;;7.03;1.17;;;0.90;99.90;;;;;;5042996;28;20025;-66
2023/04/03 04:01:31;;;;;;;6.13;1.38;;;0.90;99.90;;;;;;5045886;28;20033;-66
2023/04/03 04:03:56;;;;;;;2.38;0.95;;;0.80;99.90;;;;;;5042341;28;20033;-66
2023/04/03 04:06:26;;;;;;;3.00;0.82;;;0.80;99.90;;;;;;5042643;28;20044;-66
2023/04/03 04:08:56;;;;;;;1.98;0.77;;;0.80;99.90;;;;;;5043507;28;20448;-65
2023/04/03 04:11:22;;;;;;;3.53;0.70;;;0.80;99.90;;;;;;5046191;28;20025;-66
2023/04/03 04:13:49;;;;;;;2.38;0.55;;;0.80;99.90;;;;;;5036703;28;20047;-66
2023/04/03 04:16:17;;;;;;;5.00;1.05;;;0.80;99.90;;;;;;5043974;28;20769;-67
2023/04/03 04:18:43;;;;;;;6.82;1.00;;;0.80;99.90;;;;;;5042832;28;20075;-66
2023/04/03 04:21:09;;;;;;;3.13;1.20;;;0.70;99.90;;;;;;5041355;28;20387;-68
2023/04/03 04:23:36;;;;;;;2.53;0.82;;;0.70;99.90;;;;;;5041450;28;20029;-66
2023/04/03 04:26:02;;;;;;;9.02;0.93;;;0.70;99.90;;;;;;5040866;28;20036;-66
2023/04/03 04:28:32;;;;;;;8.38;1.10;;;0.70;99.90;;;;;;5032612;28;20028;-67
2023/04/03 04:31:00;;;;;;;6.72;1.05;;;0.70;99.90;;;;;;5032821;28;20773;-66
2023/04/03 04:33:26;;;;;;;3.47;1.00;;;0.70;99.90;;;;;;5034088;28;20112;-66
2023/04/03 04:35:53;;;;;;;1.80;0.73;;;0.70;99.90;;;;;;5041211;28;20075;-66
2023/04/03 04:38:21;;;;;;;4.25;0.90;;;0.70;99.90;;;;;;5039278;28;20090;-66
2023/04/03 04:40:48;;;;;;;3.85;0.93;;;0.70;99.90;;;;;;5036823;28;20125;-66
2023/04/03 04:43:14;;;;;;;4.35;0.80;;;0.70;99.90;;;;;;5043640;28;20090;-66
2023/04/03 04:45:42;;;;;;;3.47;0.63;;;0.70;99.90;;;;;;5043875;28;20104;-66
2023/04/03 04:48:09;;;;;;;4.25;0.75;;;0.70;99.90;;;;;;5042607;28;20036;-66
2023/04/03 04:50:35;;;;;;;3.80;0.90;;;0.70;99.90;;;;;;5036481;28;20021;-67
2023/04/03 04:53:01;;;;;;;4.53;1.10;;;0.70;99.90;;;;;;5040239;28;20087;-67
2023/04/03 04:55:27;;;;;;;4.22;0.85;;;0.70;99.90;;;;;;5039684;28;20150;-67
2023/04/03 04:57:53;;;;;;;4.20;0.50;;;0.70;99.90;;;;;;5042928;28;20054;-68
2023/04/03 05:00:20;;;;;;;2.45;0.77;;;0.70;99.90;;;;;;5034538;28;20029;-66
2023/04/03 05:02:46;;;;;;;2.75;0.60;;;0.70;99.90;;;;;;5042325;28;20483;-66
2023/04/03 05:05:12;;;;;;;3.30;1.02;;;0.70;99.90;;;;;;5046529;28;20059;-66
2023/04/03 05:07:38;;;;;;;8.80;1.00;;;0.70;99.90;;;;;;5041618;28;20041;-67
2023/04/03 05:10:05;;;;;;;2.13;0.70;;;0.70;99.90;;;;;;5049710;28;20064;-67
2023/04/03 05:12:32;;;;;;;4.30;0.88;;;0.70;99.90;;;;;;5048184;28;20848;-66
2023/04/03 05:15:00;;;;;;;3.95;0.75;;;0.70;99.90;;;;;;5047296;28;20040;-66
2023/04/03 05:17:28;;;;;;;6.45;1.23;;;0.70;99.90;;;;;;5045529;28;20046;-66
2023/04/03 05:19:56;;;;;;;3.75;0.85;;;0.70;99.90;;;;;;5048327;28;20028;-67
2023/04/03 05:22:23;;;;;;;4.30;1.20;;;0.80;99.90;;;;;;5040478;28;20147;-66
2023/04/03 05:24:51;;;;;;;3.70;1.10;;;0.80;99.90;;;;;;5042878;28;20040;-66
2023/04/03 05:27:18;;;;;;;4.15;0.85;;;0.80;99.90;;;;;;5036627;28;20150;-66
2023/04/03 05:29:52;;;;;;;2.10;0.90;;;0.80;99.90;;;;;;5042121;28;20131;-66
2023/04/03 05:32:21;;;;;;;7.32;0.93;;;0.80;99.90;;;;;;5038668;28;20132;-66
2023/04/03 05:34:51;;;;;;;2.20;0.90;;;0.90;99.90;;;;;;5046793;28;20025;-66
2023/04/03 05:37:18;;;;;;;4.25;0.80;;;0.90;99.90;;;;;;5038180;28;20502;-66
2023/04/03 05:39:44;;;;;;;2.28;0.88;;;1.00;99.90;;;;;;5042941;28;20072;-66
2023/04/03 05:42:11;;;;;;;2.38;0.70;;;1.00;99.90;;;;;;5040956;28;20029;-66
2023/04/03 05:44:38;;;;;;;6.43;1.05;;;1.00;99.90;;;;;;5038610;28;20041;-66
2023/04/03 05:47:04;;;;;;;2.50;0.95;;;1.00;99.90;;;;;;5042669;28;20044;-66
2023/04/03 05:49:31;;;;;;;2.58;0.90;;;1.10;99.90;;;;;;5043914;28;20055;-66
2023/04/03 05:51:56;;;;;;;3.25;0.63;;;1.20;99.90;;;;;;5045639;28;20041;-65
2023/04/03 05:54:28;;;;;;;1.02;0.73;;;1.30;99.90;;;;;;5039277;28;20037;-66
2023/04/03 05:57:06;;;;;;;2.67;1.05;;;1.30;99.90;;;;;;5037095;28;20078;-66
2023/04/03 05:59:32;;;;;;;3.55;0.82;;;1.40;99.90;;;;;;5036515;28;20807;-66
2023/04/03 06:02:01;;;;;;;2.55;0.90;;;1.50;99.90;;;;;;5043452;28;20025;-66
2023/04/03 06:04:26;;;;;;;5.28;1.48;;;1.60;99.90;;;;;;5039609;28;20044;-66
2023/04/03 06:06:56;;;;;;;1.15;0.77;;;1.80;99.90;;;;;;5054435;28;20095;-66
2023/04/03 06:09:23;;;;;;;3.88;1.88;;;1.90;99.90;;;;;;5039355;28;20090;-66
2023/04/03 06:11:50;;;;;;;1.58;1.25;;;2.10;99.90;;;;;;5038139;28;20036;-66
2023/04/03 06:14:16;;;;;;;3.75;1.30;;;2.30;99.90;;;;;;5038999;28;20810;-66
2023/04/03 06:16:43;;;;;;;2.80;1.00;;;2.70;99.90;;;;;;5037856;28;20029;-65
2023/04/03 06:19:09;;;;;;;3.50;1.20;;;3.20;99.90;;;;;;5037364;28;20882;-65
2023/04/03 06:21:39;;;;;;;1.65;0.68;;;3.70;99.20;;;;;;5033430;28;20109;-65
2023/04/03 06:24:05;;;;;;;7.07;1.60;;;4.00;98.20;;;;;;5043371;28;20977;-65
2023/04/03 06:26:33;;;;;;;5.20;1.23;;;4.30;97.20;;;;;;5036047;28;20405;-65
2023/04/03 06:28:59;;;;;;;5.38;1.08;;;4.40;96.80;;;;;;5040277;28;20037;-65
2023/04/03 06:31:25;;;;;;;4.88;0.90;;;4.50;96.30;;;;;;5041764;28;20029;-65
2023/04/03 06:33:50;;;;;;;5.78;0.98;;;4.70;95.70;;;;;;5040938;28;20033;-65
2023/04/03 06:36:22;;;;;;;4.75;0.77;;;4.80;95.30;;;;;;5041584;28;20047;-65
2023/04/03 06:38:48;;;;;;;5.20;0.90;;;4.80;94.70;;;;;;5045094;28;20059;-65
2023/04/03 06:41:14;;;;;;;2.08;0.95;;;4.80;94.50;;;;;;5046222;28;20140;-65
2023/04/03 06:43:40;;;;;;;4.45;0.85;;;4.80;94.40;;;;;;5045146;28;20047;-65
2023/04/03 06:46:06;;;;;;;3.60;1.00;;;5.00;93.40;;;;;;5045945;28;20024;-65
2023/04/03 06:48:32;;;;;;;4.97;1.10;;;5.60;93.10;;;;;;5050674;28;20088;-65
2023/04/03 06:50:57;;;;;;;2.28;0.85;;;6.70;91.70;;;;;;5046231;28;20025;-65
2023/04/03 06:53:23;;;;;;;1.80;0.73;;;7.50;84.90;;;;;;5046961;28;20067;-65
2023/04/03 06:55:49;;;;;;;2.45;0.60;;;7.60;83.80;;;;;;5049798;28;20029;-65
2023/04/03 06:58:17;;;;;;;2.17;0.80;;;7.50;83.20;;;;;;5045034;28;20121;-65
2023/04/03 07:00:43;;;;;;;3.75;1.08;;;7.50;83.20;;;;;;5047445;28;20031;-63
2023/04/03 07:03:08;;;;;;;2.97;0.70;;;7.90;79.50;;;;;;5044560;28;20059;-66
2023/04/03 07:05:34;;;;;;;2.80;0.93;;;8.50;76.50;;;;;;5045617;28;20033;-64
2023/04/03 07:08:00;;;;;;;2.35;0.80;;;9.20;73.80;;;;;;5046186;28;20112;-64
2023/04/03 07:10:26;;;;;;;4.38;1.13;;;10.00;69.50;;;;;;5045290;28;20025;-66
2023/04/03 07:12:52;;;;;;;3.90;0.82;;;10.80;64.70;;;;;;5047773;28;20213;-63
2023/04/03 07:15:18;;;;;;;3.95;0.90;;;11.00;61.40;;;;;;5043624;28;20036;-65
2023/04/03 07:17:44;;;;;;;2.63;0.88;;;11.40;60.00;;;;;;5044022;28;20555;-64
2023/04/03 07:20:10;;;;;;;3.33;0.88;;;12.00;59.80;;;;;;5043929;28;20027;-64
2023/04/03 07:22:37;;;;;;;2.35;0.80;;;12.60;56.60;;;;;;5042596;28;20025;-64
2023/04/03 07:25:04;;;;;;;3.00;0.65;;;12.90;55.00;;;;;;5045388;28;20025;-64
2023/04/03 07:27:30;;;;;;;2.40;0.98;;;12.50;50.00;;;;;;5042372;28;20729;-64
2023/04/03 07:29:56;;;;;;;2.33;0.70;;;11.80;52.80;;;;;;5045367;28;20123;-64
2023/04/03 07:32:21;;;;;;;1.55;0.52;;;11.30;54.50;;;;;;5047609;28;20115;-66
2023/04/03 07:34:47;;;;;;;3.17;0.60;;;10.80;53.10;;;;;;5040735;28;20039;-67
2023/04/03 07:37:13;;;;;;;1.98;0.93;;;10.40;54.40;;;;;;5040931;28;20035;-64
2023/04/03 07:39:39;;;;;;;3.45;0.63;;;10.30;52.50;;;;;;5041424;28;20532;-64
2023/04/03 07:42:05;;;;;;;5.00;1.02;;;9.80;52.50;;;;;;5043119;28;20033;-66
2023/04/03 07:44:31;;;;;;;3.00;0.80;;;9.20;53.20;;;;;;5042208;28;20094;-64
2023/04/03 07:46:56;;;;;;;1.65;0.40;;;8.90;55.00;;;;;;5044012;28;20028;-66
2023/04/03 07:49:25;;;;;;;2.28;0.70;;;8.50;56.10;;;;;;5041809;28;20580;-66
2023/04/03 07:51:52;;;;;;;4.05;0.93;;;8.30;57.80;;;;;;5039682;28;20858;-66
2023/04/03 07:54:18;;;;;;;2.00;0.60;;;8.10;57.70;;;;;;5041143;28;20033;-66
2023/04/03 07:56:44;;;;;;;3.30;1.50;;;8.00;58.20;;;;;;5041093;28;20094;-66
2023/04/03 07:59:11;;;;;;;4.07;0.90;;;7.90;58.90;;;;;;5040382;28;20140;-66
2023/04/03 08:01:37;;;;;;;1.52;0.63;;;7.90;59.00;;;;;;5041228;28;20036;-66
2023/04/03 08:04:03;;;;;;;4.75;0.85;;;7.50;56.90;;;;;;5037833;28;20033;-66
2023/04/03 08:06:31;;;;;;;4.07;0.77;;;7.50;60.90;;;;;;5039035;28;20116;-66
2023/04/03 08:08:58;;;;;;;2.13;0.70;;;7.40;57.80;;;;;;5039860;28;20025;-66
2023/04/03 08:11:26;;;;;;;4.00;0.50;;;7.90;59.20;;;;;;5039375;28;20044;-65
2023/04/03 08:13:52;;;;;;;1.35;0.38;;;8.80;56.80;;;;;;5040465;28;20048;-66
2023/04/03 08:16:22;;;;;;;4.13;0.70;;;9.20;54.10;;;;;;5040239;28;20055;-66
2023/04/03 08:18:49;;;;;;;2.28;0.60;;;9.10;54.50;;;;;;5038203;28;20056;-66
2023/04/03 08:21:14;;;;;;;2.30;0.90;;;8.90;53.80;;;;;;5034211;28;20385;-66
2023/04/03 08:23:41;;;;;;;2.63;0.60;;;8.60;53.70;;;;;;5040124;28;20388;-64
2023/04/03 08:26:12;;;;;;;1.92;0.57;;;8.20;53.70;;;;;;5042724;28;20036;-66
2023/04/03 08:28:39;;;;;;;1.45;0.60;;;7.70;54.20;;;;;;5040398;28;20041;-66
2023/04/03 08:31:12;;;;;;;3.28;0.70;;;7.50;56.30;;;;;;5042412;28;20120;-66
2023/04/03 08:33:39;;;;;;;1.38;0.52;;;7.30;55.50;;;;;;5040582;28;20033;-66
2023/04/03 08:36:16;;;;;;;4.15;0.93;;;7.20;55.50;;;;;;5040185;28;20136;-66
2023/04/03 08:38:41;;;;;;;2.17;1.00;;;7.10;55.40;;;;;;5038822;28;20029;-66
2023/04/03 08:41:16;;;;;;;5.63;2.00;;;6.90;57.30;;;;;;5038851;28;20067;-66
2023/04/03 08:43:57;;;;;;;3.63;1.63;;;6.90;57.00;;;;;;5041954;28;20036;-66
2023/04/03 08:46:35;;;;;;;1.90;0.85;;;6.90;58.70;;;;;;5038358;28;20029;-66
2023/04/03 08:49:01;;;;;;;4.95;0.90;;;7.50;57.80;;;;;;5036723;28;20141;-66
2023/04/03 08:51:29;;;;;;;1.35;0.45;;;8.70;55.20;;;;;;5042749;28;20029;-66
2023/04/03 08:54:07;;;;;;;0.82;0.60;;;9.90;52.10;;;;;;5040370;28;20048;-66
2023/04/03 08:56:35;;;;;;;1.67;0.40;;;10.80;49.80;;;;;;5041108;28;20532;-65
2023/04/03 08:59:07;;;;;;;3.03;0.68;;;11.00;48.00;;;;;;5044630;28;20109;-66
2023/04/03 09:01:39;;;;;;;2.78;0.85;;;10.60;47.80;;;;;;5041411;28;20032;-66
2023/04/03 09:04:14;;;;;;;3.30;0.70;;;10.10;49.00;;;;;;5039070;28;20576;-64
2023/04/03 09:06:46;;;;;;;2.08;0.70;;;9.30;49.70;;;;;;5039462;28;20032;-66
2023/04/03 09:09:40;;;;;;;4.05;0.88;;;8.90;50.70;;;;;;5041833;28;20032;-66
2023/04/03 09:12:26;;;;;;;2.53;0.88;;;8.50;52.80;;;;;;5041034;28;20037;-65
2023/04/03 09:15:01;;;;;;;4.68;0.80;;;8.00;53.30;;;;;;5041042;28;20432;-66
2023/04/03 09:17:51;;;;;;;4.50;1.00;;;7.90;55.00;;;;;;5044405;28;20045;-66
2023/04/03 09:20:36;;;;;;;1.90;0.70;;;7.80;54.60;;;;;;5040616;28;20539;-67
2023/04/03 09:23:20;;;;;;;4.65;0.60;;;7.80;55.90;;;;;;5044325;28;20072;-66
2023/04/03 09:25:46;;;;;;;2.97;1.20;;;7.90;54.00;;;;;;5045133;28;20032;-66
2023/04/03 09:28:12;;;;;;;3.53;0.63;;;7.90;55.10;;;;;;5043073;28;20029;-66
2023/04/03 09:30:38;;;;;;;2.05;0.50;;;7.90;53.60;;;;;;5044321;28;20032;-66
2023/04/03 09:33:05;;;;;;;3.17;0.50;;;7.90;54.40;;;;;;5046150;28;20032;-64
2023/04/03 09:35:33;;;;;;;2.20;0.60;;;7.90;54.50;;;;;;5046994;28;20079;-67
2023/04/03 09:38:11;;;;;;;3.80;0.70;;;7.70;54.90;;;;;;5046974;28;20025;-66
2023/04/03 09:40:40;;;;;;;4.82;1.42;;;7.60;54.70;;;;;;5038897;28;20021;-66
2023/04/03 09:43:26;;;;;;;2.72;0.68;;;7.50;55.40;;;;;;5042359;28;20029;-66
2023/04/03 09:45:52;;;;;;;1.88;0.80;;;7.60;56.00;;;;;;5035878;28;20037;-64
2023/04/03 09:48:24;;;;;;;0.70;0.45;;;7.80;54.20;;;;;;5040978;28;20033;-66
2023/04/03 09:50:55;;;;;;;1.90;0.80;;;8.30;54.60;;;;;;5036353;28;20447;-66
2023/04/03 09:53:43;;;;;;;2.28;0.80;;;8.60;52.80;;;;;;5036557;28;20032;-66
2023/04/03 09:56:25;;;;;;;4.68;1.10;;;8.90;51.80;;;;;;5037371;28;20021;-66
2023/04/03 09:59:03;;;;;;;3.33;0.55;;;9.20;51.80;;;;;;5041226;28;20140;-66
2023/04/03 10:01:41;;;;;;;0.82;0.40;;;9.20;51.30;;;;;;5038667;28;20017;-64
2023/04/03 10:04:17;;;;;;;4.47;0.70;;;9.60;51.70;;;;;;5038706;28;20985;-66
2023/04/03 10:06:52;;;;;;;2.80;0.52;;;9.80;50.20;;;;;;5041034;28;20153;-66
2023/04/03 10:09:30;;;;;;;0.97;0.47;;;9.80;50.90;;;;;;5035683;28;20567;-64
2023/04/03 10:12:09;;;;;;;1.40;0.50;;;9.70;50.50;;;;;;5046669;28;20601;-66
2023/04/03 10:14:40;;;;;;;2.42;0.85;;;9.40;50.60;;;;;;5039901;28;20452;-64
2023/04/03 10:17:23;;;;;;;3.47;0.80;;;9.50;52.60;;;;;;5047369;28;20141;-66
2023/04/03 10:19:52;;;;;;;3.67;0.52;;;9.50;52.10;;;;;;5045735;28;20137;-66
2023/04/03 10:22:33;;;;;;;2.85;0.75;;;9.50;52.70;;;;;;5049247;28;20093;-64
2023/04/03 10:25:04;;;;;;;2.78;0.50;;;9.70;51.20;;;;;;5042950;28;20374;-66
2023/04/03 10:27:42;;;;;;;2.30;0.70;;;9.80;51.30;;;;;;5043424;28;20126;-66
2023/04/03 10:30:26;;;;;;;1.48;1.00;;;9.80;53.00;;;;;;5045291;28;20083;-66
2023/04/03 10:33:21;;;;;;;4.45;0.80;;;9.90;52.60;;;;;;5045940;28;20190;-64
2023/04/03 10:36:09;;;;;;;2.10;0.60;;;9.80;50.70;;;;;;4989328;28;20124;-64
2023/04/03 10:38:56;;;;;;;1.08;0.77;;;9.90;51.30;;;;;;5044073;28;20523;-64
2023/04/03 10:41:46;;;;;;;1.05;0.77;;;9.90;51.30;;;;;;5045088;28;20124;-64
2023/04/03 10:44:41;;;;;;;3.67;1.15;;;9.90;51.60;;;;;;5046106;28;20083;-64
2023/04/03 10:47:26;;;;;;;2.10;0.57;;;9.90;49.80;;;;;;5044721;28;20044;-66
2023/04/03 10:50:18;;;;;;;1.40;0.60;;;9.80;50.40;;;;;;5042491;28;20033;-64
2023/04/03 10:52:55;;;;;;;2.72;0.50;;;9.80;50.30;;;;;;5039349;28;20029;-65
2023/04/03 10:55:52;;;;;;;3.75;0.88;;;9.90;48.70;;;;;;5043219;28;20044;-64
2023/04/03 10:58:36;;;;;;;3.35;0.63;;;9.90;49.00;;;;;;5039489;28;20036;-64
2023/04/03 11:01:11;;;;;;;3.05;0.45;;;9.90;50.40;;;;;;5043176;28;20029;-64
2023/04/03 11:03:44;;;;;;;4.40;1.20;;;10.00;50.40;;;;;;5042958;28;20120;-65
2023/04/03 11:06:15;;;;;;;2.05;0.50;;;9.90;48.70;;;;;;5042954;28;20711;-66
2023/04/03 11:08:58;;;;;;;2.42;0.70;;;9.80;50.90;;;;;;5044964;28;20496;-64
2023/04/03 11:11:30;;;;;;;2.38;0.60;;;9.80;50.00;;;;;;5042677;28;20036;-64
2023/04/03 11:14:09;;;;;;;0.73;0.50;;;9.90;50.50;;;;;;5042973;28;20107;-65
2023/04/03 11:16:41;;;;;;;2.55;0.80;;;10.00;51.70;;;;;;5042154;28;20032;-65
2023/04/03 11:19:23;;;;;;;1.38;0.50;;;10.00;48.80;;;;;;5047534;28;20025;-64
2023/04/03 11:21:58;;;;;;;3.22;0.60;;;9.90;50.40;;;;;;5042055;28;20036;-64
2023/04/03 11:24:31;;;;;;;3.92;0.60;;;9.90;49.80;;;;;;5041519;28;20038;-64
2023/04/03 11:26:59;;;;;;;0.88;0.57;;;10.00;51.10;;;;;;5039723;28;20043;-64
2023/04/03 11:29:33;;;;;;;2.45;0.52;;;10.00;49.40;;;;;;5043290;28;20413;-64
2023/04/03 11:32:04;;;;;;;3.08;0.68;;;10.10;49.40;;;;;;5040386;28;20536;-64
2023/04/03 11:34:49;;;;;;;4.28;0.45;;;10.10;47.90;;;;;;5042997;28;20041;-64
2023/04/03 11:37:40;;;;;;;2.17;0.52;;;10.20;49.00;;;;;;5042833;28;20067;-64
2023/04/03 11:40:15;;;;;;;2.42;0.63;;;10.30;46.60;;;;;;5039947;28;20116;-66
2023/04/03 11:42:45;;;;;;;1.13;0.50;;;10.30;46.70;;;;;;5042939;28;20028;-66
2023/04/03 11:45:23;;;;;;;1.90;0.90;;;10.30;48.60;;;;;;5049831;28;20049;-64
2023/04/03 11:47:52;;;;;;;1.52;0.50;;;10.30;47.60;;;;;;5046694;28;20338;-65
2023/04/03 11:50:36;;;;;;;1.10;0.50;;;10.30;47.50;;;;;;5045014;28;20143;-64
2023/04/03 11:53:27;;;;;;;2.45;0.80;;;10.30;45.20;;;;;;5043035;28;20550;-66
2023/04/03 11:55:55;;;;;;;2.17;0.80;;;10.30;46.70;;;;;;5035410;28;20060;-66
2023/04/03 11:58:48;;;;;;;2.63;0.73;;;10.30;47.80;;;;;;5044134;28;20032;-66
2023/04/03 12:01:47;;;;;;;9.13;2.92;;;10.40;50.30;;;;;;5044591;28;20044;-64
2023/04/03 12:04:15;;;;;;;1.83;0.73;;;10.30;49.50;;;;;;5042801;28;20032;-64
2023/04/03 12:06:42;;;;;;;3.50;0.73;;;10.30;48.60;;;;;;5041286;28;20055;-64
2023/04/03 12:09:27;;;;;;;2.55;0.85;;;10.10;50.60;;;;;;5040761;28;20051;-66
2023/04/03 12:11:54;;;;;;;3.50;0.70;;;10.10;49.50;;;;;;5040649;28;20032;-64
2023/04/03 12:14:25;;;;;;;0.75;0.47;;;10.00;48.10;;;;;;5043870;28;20630;-64
2023/04/03 12:16:54;;;;;;;0.70;0.57;;;10.00;49.70;;;;;;5046633;28;20029;-64
2023/04/03 12:19:29;;;;;;;0.90;0.50;;;10.00;51.30;;;;;;5039492;28;20382;-64
2023/04/03 12:21:58;;;;;;;2.78;0.80;;;10.00;50.60;;;;;;5041328;28;20469;-63
2023/04/03 12:24:31;;;;;;;1.67;0.60;;;10.00;48.80;;;;;;5041318;28;20412;-65
2023/04/03 12:26:57;;;;;;;2.92;0.65;;;10.10;50.60;;;;;;5043711;28;20029;-66
2023/04/03 12:29:34;;;;;;;2.03;0.65;;;10.10;49.10;;;;;;5043141;28;20575;-66
2023/04/03 12:32:40;;;;;;;2.67;0.75;;;10.10;47.40;;;;;;5043214;28;20033;-66
2023/04/03 12:35:31;;;;;;;3.47;1.00;;;10.10;49.70;;;;;;5035882;28;20032;-67
2023/04/03 12:38:15;;;;;;;2.35;0.65;;;10.20;48.80;;;;;;5040717;28;20024;-64
2023/04/03 12:40:58;;;;;;;1.60;0.65;;;10.20;47.30;;;;;;5041166;28;20036;-63
2023/04/03 12:43:48;;;;;;;1.33;0.50;;;10.00;47.00;;;;;;5042326;28;21109;-66
2023/04/03 12:46:18;;;;;;;0.80;0.40;;;9.80;48.50;;;;;;5038613;28;20029;-66
2023/04/03 12:48:56;;;;;;;2.05;0.60;;;9.60;49.30;;;;;;5040873;28;20436;-66
2023/04/03 12:51:27;;;;;;;1.58;0.55;;;9.60;51.90;;;;;;5039287;28;20064;-66
2023/04/03 12:54:01;;;;;;;3.08;0.55;;;9.70;51.00;;;;;;5039959;28;20037;-64
2023/04/03 12:56:28;;;;;;;0.70;0.50;;;9.70;49.90;;;;;;5038699;28;20025;-63
2023/04/03 12:58:58;;;;;;;1.48;0.50;;;9.70;49.90;;;;;;5041299;28;20086;-64
2023/04/03 13:01:25;;;;;;;1.05;0.57;;;9.60;50.60;;;;;;5040889;28;20738;-66
2023/04/03 13:03:57;;;;;;;2.00;0.60;;;9.50;48.50;;;;;;5041286;28;20032;-66
2023/04/03 13:06:38;;;;;;;1.98;0.70;;;9.30;48.40;;;;;;5041742;28;20031;-66
2023/04/03 13:09:05;;;;;;;0.80;0.50;;;9.20;49.10;;;;;;5039898;28;20600;-64
2023/04/03 13:11:36;;;;;;;1.05;0.60;;;9.20;51.50;;;;;;5044250;28;20963;-64